Terminal Aerodrome Forecast
Issued by NWS

Home | Current Version | Previous Version | Text Only | Print | Product List | Glossary On
Versions: 1 2 3 4 5 6 7 8 9 10 11 12 13 14 15 16 17 18
759
FTUS46 KLOX 190002 RRA
TAFPRB
TAF
KPRB 190002Z 1900/1924 15010KT 6SM -RA BR SCT025 BKN050
     FM190200 17015G25KT 6SM -SHRA BR BKN025 OVC050
     FM190600 17018G28KT 5SM RA BR BKN025 OVC050
     FM191000 19012KT 2SM TSRA BR BKN015 OVC025CB
     FM191200 22014G22KT P6SM -SHRA BKN025 BKN050
     FM191800 29010KT P6SM -SHRA BKN025 BKN050=

USA.gov is the U.S. government's official web portal to all federal, state and local government web resources and services.